createdAt,value
2023-05-13T00:00:44.938Z,5.80
2023-05-13T00:03:12.575Z,7.40
2023-05-13T00:05:40.589Z,6.50
2023-05-13T00:08:08.217Z,7.10
2023-05-13T00:10:35.658Z,8.60
2023-05-13T00:13:02.915Z,6.20
2023-05-13T00:15:30.201Z,7.40
2023-05-13T00:17:57.658Z,6.40
2023-05-13T00:20:25.191Z,6.30
2023-05-13T00:22:52.536Z,6.90
2023-05-13T00:25:19.957Z,6.60
2023-05-13T00:27:47.120Z,7.00
2023-05-13T00:30:14.714Z,5.90
2023-05-13T00:32:42.303Z,5.70
2023-05-13T00:35:10.130Z,6.40
2023-05-13T00:37:37.852Z,6.80
2023-05-13T00:40:05.369Z,6.30
2023-05-13T00:42:32.811Z,7.10
2023-05-13T00:45:00.116Z,5.90
2023-05-13T00:47:27.591Z,5.40
2023-05-13T00:49:54.995Z,6.20
2023-05-13T00:52:22.425Z,5.40
2023-05-13T00:54:49.651Z,6.30
2023-05-13T00:57:17.006Z,7.30
2023-05-13T00:59:44.518Z,6.60
2023-05-13T01:02:24.549Z,6.10
2023-05-13T01:05:13.480Z,6.00
2023-05-13T01:07:49.144Z,6.10
2023-05-13T01:10:22.560Z,6.40
2023-05-13T01:12:51.457Z,8.50
2023-05-13T01:15:23.822Z,7.50
2023-05-13T01:18:07.895Z,7.90
2023-05-13T01:20:35.432Z,7.20
2023-05-13T01:23:04.400Z,6.80
2023-05-13T01:25:31.921Z,6.90
2023-05-13T01:27:59.253Z,7.80
2023-05-13T01:30:27.049Z,7.60
2023-05-13T01:32:54.594Z,9.20
2023-05-13T01:35:21.919Z,9.40
2023-05-13T01:37:50.394Z,7.50
2023-05-13T01:40:31.776Z,8.50
2023-05-13T01:43:02.673Z,8.30
2023-05-13T01:45:30.453Z,9.60
2023-05-13T01:47:58.397Z,9.20
2023-05-13T01:50:26.648Z,9.80
2023-05-13T01:52:54.233Z,9.30
2023-05-13T01:55:22.088Z,10.10
2023-05-13T01:57:49.994Z,10.20
2023-05-13T02:00:18.921Z,10.30
2023-05-13T02:02:49.349Z,9.80
2023-05-13T02:05:17.217Z,9.50
2023-05-13T02:07:45.102Z,9.90
2023-05-13T02:10:12.957Z,10.40
2023-05-13T02:12:40.533Z,10.60
2023-05-13T02:15:08.545Z,12.50
2023-05-13T02:17:35.992Z,11.70
2023-05-13T02:20:04.334Z,10.30
2023-05-13T02:22:31.858Z,10.40
2023-05-13T02:24:59.198Z,13.70
2023-05-13T02:27:27.150Z,12.10
2023-05-13T02:29:54.739Z,11.00
2023-05-13T02:32:22.511Z,10.40
2023-05-13T02:34:50.146Z,9.60
2023-05-13T02:37:17.568Z,8.50
2023-05-13T02:39:49.279Z,9.20
2023-05-13T02:42:18.171Z,8.90
2023-05-13T02:44:46.236Z,8.70
2023-05-13T02:47:13.877Z,9.00
2023-05-13T02:49:41.160Z,9.10
2023-05-13T02:52:08.600Z,7.80
2023-05-13T02:54:36.737Z,9.30
2023-05-13T02:57:04.701Z,7.70
2023-05-13T02:59:32.053Z,6.80
2023-05-13T03:01:59.540Z,7.20
2023-05-13T03:04:27.280Z,7.40
2023-05-13T03:06:54.769Z,7.10
2023-05-13T03:09:22.134Z,7.70
2023-05-13T03:11:49.382Z,7.80
2023-05-13T03:14:16.825Z,8.20
2023-05-13T03:16:45.086Z,8.30
2023-05-13T03:19:14.321Z,9.20
2023-05-13T03:21:41.926Z,9.80
2023-05-13T03:24:11.373Z,8.10
2023-05-13T03:26:38.801Z,10.10
2023-05-13T03:29:06.291Z,24.20
2023-05-13T03:31:35.037Z,23.50
2023-05-13T03:34:03.706Z,50.30
2023-05-13T03:36:32.704Z,39.70
2023-05-13T03:39:00.554Z,49.10
2023-05-13T03:41:28.500Z,65.00
2023-05-13T03:43:57.530Z,58.00
2023-05-13T03:46:27.558Z,48.60
2023-05-13T03:48:56.013Z,44.30
2023-05-13T03:51:23.665Z,52.00
2023-05-13T03:53:51.274Z,48.10
2023-05-13T03:56:18.763Z,42.70
2023-05-13T03:58:46.127Z,36.80
2023-05-13T04:01:13.396Z,34.20
2023-05-13T04:03:43.074Z,31.90
2023-05-13T04:06:10.374Z,33.20
2023-05-13T04:08:37.996Z,36.00
2023-05-13T04:11:05.284Z,35.90
2023-05-13T04:13:36.278Z,34.90
2023-05-13T04:16:04.080Z,32.20
2023-05-13T04:18:31.800Z,32.00
2023-05-13T04:20:59.235Z,32.30
2023-05-13T04:23:26.745Z,32.40
2023-05-13T04:25:54.189Z,31.20
2023-05-13T04:28:21.808Z,31.70
2023-05-13T04:30:50.581Z,26.50
2023-05-13T04:33:18.338Z,25.40
2023-05-13T04:35:48.124Z,25.70
2023-05-13T04:38:15.817Z,27.90
2023-05-13T04:40:44.663Z,28.60
2023-05-13T04:43:14.359Z,28.50
2023-05-13T04:45:48.029Z,42.50
2023-05-13T04:48:16.197Z,40.90
2023-05-13T04:50:47.183Z,52.60
2023-05-13T04:53:16.113Z,52.00
2023-05-13T04:55:48.091Z,50.60
2023-05-13T04:58:15.603Z,44.10
2023-05-13T05:00:43.099Z,31.50
2023-05-13T05:03:11.085Z,26.50
2023-05-13T05:05:40.323Z,16.80
2023-05-13T05:08:09.386Z,13.10
2023-05-13T05:10:37.865Z,15.10
2023-05-13T05:13:05.459Z,19.60
2023-05-13T05:15:33.796Z,38.40
2023-05-13T05:18:02.492Z,48.40
2023-05-13T05:20:31.280Z,71.00
2023-05-13T05:23:00.602Z,82.60
2023-05-13T05:25:29.641Z,73.10
2023-05-13T05:27:57.467Z,92.20
2023-05-13T05:30:26.286Z,64.10
2023-05-13T05:33:01.677Z,60.10
2023-05-13T05:35:29.472Z,67.00
2023-05-13T05:37:57.093Z,66.80
2023-05-13T05:40:25.266Z,60.10
2023-05-13T05:42:52.685Z,53.00
2023-05-13T05:45:20.911Z,39.90
2023-05-13T05:47:48.342Z,30.20
2023-05-13T05:50:16.853Z,23.10
2023-05-13T05:52:45.474Z,23.60
2023-05-13T05:55:14.004Z,31.40
2023-05-13T05:57:41.449Z,31.50
2023-05-13T06:00:10.638Z,30.80
2023-05-13T06:02:42.590Z,31.40
2023-05-13T06:05:10.618Z,33.00
2023-05-13T06:07:41.791Z,32.20
2023-05-13T06:10:09.892Z,31.00
2023-05-13T06:12:37.305Z,33.10
2023-05-13T06:15:06.774Z,30.60
2023-05-13T06:17:34.347Z,25.50
2023-05-13T06:20:01.866Z,29.60
2023-05-13T06:22:29.207Z,22.00
2023-05-13T06:24:56.666Z,24.00
2023-05-13T06:27:24.296Z,12.70
2023-05-13T06:29:51.753Z,12.90
2023-05-13T06:32:20.360Z,11.40
2023-05-13T06:34:48.732Z,12.80
2023-05-13T06:37:16.114Z,15.90
2023-05-13T06:39:44.007Z,19.60
2023-05-13T06:42:12.979Z,24.10
2023-05-13T06:44:46.503Z,17.50
2023-05-13T06:47:16.214Z,18.90
2023-05-13T06:49:44.707Z,20.50
2023-05-13T06:52:12.492Z,18.00
2023-05-13T06:54:40.792Z,16.10
2023-05-13T06:57:08.563Z,17.50
2023-05-13T06:59:36.255Z,16.10
2023-05-13T07:02:04.683Z,24.50
2023-05-13T07:04:32.323Z,22.10
2023-05-13T07:06:59.544Z,27.30
2023-05-13T07:09:27.620Z,36.30
2023-05-13T07:11:55.020Z,40.30
2023-05-13T07:14:22.454Z,30.80
2023-05-13T07:16:50.093Z,27.20
2023-05-13T07:19:17.662Z,29.10
2023-05-13T07:21:45.060Z,25.70
2023-05-13T07:24:12.572Z,34.20
2023-05-13T07:26:39.977Z,24.10
2023-05-13T07:29:07.569Z,23.60
2023-05-13T07:31:34.942Z,7.90
2023-05-13T07:34:02.346Z,3.90
2023-05-13T07:36:29.664Z,6.20
2023-05-13T07:38:57.050Z,10.30
2023-05-13T07:41:24.500Z,9.90
2023-05-13T07:43:52.104Z,11.60
2023-05-13T07:46:22.058Z,8.80
2023-05-13T07:48:49.572Z,6.00
2023-05-13T07:51:18.656Z,16.80
2023-05-13T07:53:47.453Z,27.50
2023-05-13T07:56:14.847Z,20.70
2023-05-13T07:58:42.313Z,27.80
2023-05-13T08:01:09.756Z,9.50
2023-05-13T08:03:37.467Z,6.20
2023-05-13T08:06:06.064Z,4.90
2023-05-13T08:08:33.472Z,8.00
2023-05-13T08:11:00.907Z,5.20
2023-05-13T08:13:28.282Z,7.40
2023-05-13T08:15:55.995Z,6.40
2023-05-13T08:18:23.598Z,7.50
2023-05-13T08:20:51.058Z,3.00
2023-05-13T08:23:18.293Z,3.60
2023-05-13T08:25:45.885Z,4.30
2023-05-13T08:28:13.394Z,3.20
2023-05-13T08:30:44.610Z,3.50
2023-05-13T08:33:12.273Z,3.10
2023-05-13T08:35:39.683Z,4.00
2023-05-13T08:38:07.011Z,2.50
2023-05-13T08:40:37.029Z,1.80
2023-05-13T08:43:05.103Z,2.00
2023-05-13T08:45:33.391Z,1.50
2023-05-13T08:50:29.771Z,1.60
2023-05-13T08:52:58.353Z,3.60
2023-05-13T08:55:25.760Z,19.50
2023-05-13T08:57:53.314Z,69.80
2023-05-13T09:00:21.872Z,102.80
2023-05-13T09:02:51.276Z,43.60
2023-05-13T09:05:18.828Z,99.10
2023-05-13T09:07:46.418Z,122.80
2023-05-13T09:10:13.861Z,24.80
2023-05-13T09:12:48.615Z,5.60
2023-05-13T09:15:17.913Z,2.20
2023-05-13T09:17:48.096Z,2.90
2023-05-13T09:20:16.867Z,72.30
2023-05-13T09:23:06.721Z,35.80
2023-05-13T09:25:34.272Z,9.20
2023-05-13T09:28:03.144Z,5.80
2023-05-13T09:30:32.987Z,9.60
2023-05-13T09:33:13.858Z,26.70
2023-05-13T09:35:45.366Z,7.50
2023-05-13T09:38:20.158Z,14.10
2023-05-13T09:41:02.171Z,113.00
2023-05-13T09:43:32.956Z,23.40
2023-05-13T09:46:04.548Z,6.90
2023-05-13T09:48:34.547Z,2.60
2023-05-13T09:51:01.530Z,2.20
2023-05-13T09:53:28.586Z,5.30
2023-05-13T09:55:59.140Z,5.90
2023-05-13T09:58:28.232Z,4.10
2023-05-13T10:00:57.092Z,2.30
2023-05-13T10:03:24.574Z,2.10
2023-05-13T10:05:52.708Z,3.50
2023-05-13T10:08:20.370Z,2.00
2023-05-13T10:10:47.854Z,3.90
2023-05-13T10:13:16.511Z,2.50
2023-05-13T10:15:51.375Z,4.00
2023-05-13T10:18:19.812Z,3.20
2023-05-13T10:20:47.584Z,2.80
2023-05-13T10:23:14.889Z,2.40
2023-05-13T10:25:42.390Z,2.30
2023-05-13T10:28:09.872Z,2.20
2023-05-13T10:30:37.261Z,3.20
2023-05-13T10:33:04.741Z,4.10
2023-05-13T10:35:37.535Z,3.40
2023-05-13T10:38:17.159Z,4.10
2023-05-13T10:40:53.983Z,4.00
2023-05-13T10:43:22.764Z,5.10
2023-05-13T10:45:51.561Z,6.20
2023-05-13T10:48:19.113Z,6.00
2023-05-13T10:50:56.497Z,4.00
2023-05-13T10:53:25.531Z,2.60
2023-05-13T10:55:54.699Z,3.50
2023-05-13T10:58:24.779Z,2.50
2023-05-13T11:00:52.368Z,5.40
2023-05-13T11:03:22.126Z,4.80
2023-05-13T11:06:29.204Z,3.10
2023-05-13T11:08:56.593Z,4.40
2023-05-13T11:11:33.370Z,3.60
2023-05-13T11:14:09.996Z,3.80
2023-05-13T11:16:37.929Z,3.90
2023-05-13T11:19:18.572Z,3.90
2023-05-13T11:21:55.062Z,3.30
2023-05-13T11:24:22.607Z,4.20
2023-05-13T11:26:57.421Z,3.50
2023-05-13T11:29:31.963Z,4.50
2023-05-13T11:32:00.816Z,13.80
2023-05-13T11:34:28.491Z,11.60
2023-05-13T11:37:05.298Z,5.10
2023-05-13T11:39:32.867Z,8.00
2023-05-13T11:42:01.962Z,4.70
2023-05-13T11:44:31.760Z,4.10
2023-05-13T11:47:06.444Z,5.10
2023-05-13T11:49:38.944Z,1.70
2023-05-13T11:52:09.038Z,10.90
2023-05-13T11:54:48.690Z,17.60
2023-05-13T11:57:26.445Z,20.90
2023-05-13T11:59:55.003Z,16.70
2023-05-13T12:02:26.784Z,4.90
2023-05-13T12:04:54.398Z,4.20
2023-05-13T12:07:25.117Z,17.00
2023-05-13T12:09:54.344Z,15.70
2023-05-13T12:12:21.917Z,25.80
2023-05-13T12:14:53.224Z,8.70
2023-05-13T12:17:20.815Z,3.60
2023-05-13T12:20:07.479Z,26.50
2023-05-13T12:22:35.842Z,11.40
2023-05-13T12:25:42.396Z,4.50
2023-05-13T12:28:45.211Z,4.40
2023-05-13T12:31:16.386Z,2.90
2023-05-13T12:33:44.499Z,2.20
2023-05-13T12:36:21.375Z,1.90
2023-05-13T12:39:07.472Z,2.60
2023-05-13T12:41:36.406Z,4.70
2023-05-13T12:44:10.187Z,5.90
2023-05-13T12:46:37.909Z,6.70
2023-05-13T12:49:06.254Z,3.70
2023-05-13T12:51:34.087Z,2.80
2023-05-13T12:54:01.928Z,2.30
2023-05-13T12:56:29.286Z,2.50
2023-05-13T12:58:56.729Z,2.80
2023-05-13T13:01:24.134Z,2.50
2023-05-13T13:03:51.807Z,1.50
2023-05-13T13:06:19.365Z,1.50
2023-05-13T13:08:46.819Z,2.10
2023-05-13T13:11:20.364Z,2.90
2023-05-13T13:13:48.487Z,2.20
2023-05-13T13:16:15.796Z,4.90
2023-05-13T13:18:43.242Z,2.90
2023-05-13T13:21:10.778Z,2.30
2023-05-13T13:23:38.438Z,2.70
2023-05-13T13:26:05.973Z,1.70
2023-05-13T13:28:33.728Z,2.90
2023-05-13T13:31:01.318Z,2.40
2023-05-13T13:33:28.910Z,2.80
2023-05-13T13:35:56.413Z,1.80
2023-05-13T13:38:23.851Z,1.60
2023-05-13T13:40:51.339Z,3.40
2023-05-13T13:43:19.750Z,5.60
2023-05-13T13:45:47.181Z,3.80
2023-05-13T13:48:14.648Z,3.30
2023-05-13T13:50:42.020Z,2.30
2023-05-13T13:53:09.376Z,3.10
2023-05-13T13:55:36.686Z,2.20
2023-05-13T13:58:04.550Z,2.80
2023-05-13T14:00:32.045Z,5.80
2023-05-13T14:02:59.602Z,13.30
2023-05-13T14:05:27.101Z,6.30
2023-05-13T14:07:56.054Z,3.80
2023-05-13T14:10:23.636Z,4.30
2023-05-13T14:12:51.230Z,3.40
2023-05-13T14:15:18.597Z,2.90
2023-05-13T14:17:45.958Z,1.30
2023-05-13T14:20:13.422Z,4.00
2023-05-13T14:22:40.906Z,5.80
2023-05-13T14:25:09.514Z,5.10
2023-05-13T14:27:36.965Z,2.60
2023-05-13T14:30:05.606Z,3.90
2023-05-13T14:32:33.902Z,2.40
2023-05-13T14:35:01.389Z,1.90
2023-05-13T14:37:28.874Z,2.80
2023-05-13T14:39:56.295Z,2.10
2023-05-13T14:42:23.737Z,3.80
2023-05-13T14:44:51.167Z,4.60
2023-05-13T14:47:19.629Z,4.40
2023-05-13T14:49:47.054Z,3.70
2023-05-13T14:52:14.353Z,2.90
2023-05-13T14:54:41.630Z,1.70
2023-05-13T14:57:08.951Z,2.70
2023-05-13T14:59:36.343Z,2.80
2023-05-13T15:02:03.971Z,2.10
2023-05-13T15:04:31.355Z,3.70
2023-05-13T15:06:59.450Z,2.50
2023-05-13T15:09:27.062Z,1.60
2023-05-13T15:11:54.445Z,3.80
2023-05-13T15:14:25.985Z,4.20
2023-05-13T15:16:53.761Z,2.80
2023-05-13T15:19:21.224Z,3.80
2023-05-13T15:21:48.631Z,5.70
2023-05-13T15:24:16.061Z,10.30
2023-05-13T15:26:43.641Z,9.70
2023-05-13T15:29:11.018Z,9.00
2023-05-13T15:31:38.378Z,10.00
2023-05-13T15:34:06.022Z,7.90
2023-05-13T15:36:34.606Z,4.50
2023-05-13T15:39:02.747Z,3.10
2023-05-13T15:41:30.416Z,2.40
2023-05-13T15:43:57.758Z,2.30
2023-05-13T15:46:25.939Z,4.00
2023-05-13T15:48:53.439Z,4.20
2023-05-13T15:51:21.376Z,4.30
2023-05-13T15:53:48.856Z,2.90
2023-05-13T15:56:16.107Z,2.70
2023-05-13T15:58:43.484Z,3.40
2023-05-13T16:01:11.214Z,3.90
2023-05-13T16:03:38.836Z,2.90
